createdAt,value
2023-05-24T00:00:45.009Z,35.59
2023-05-24T00:01:44.986Z,35.61
2023-05-24T00:02:45.029Z,35.61
2023-05-24T00:03:45.173Z,35.59
2023-05-24T00:04:44.984Z,35.58
2023-05-24T00:05:44.940Z,35.59
2023-05-24T00:06:44.920Z,35.56
2023-05-24T00:07:44.898Z,35.57
2023-05-24T00:08:44.888Z,35.60
2023-05-24T00:09:44.901Z,35.55
2023-05-24T00:10:44.981Z,35.58
2023-05-24T00:11:44.876Z,35.58
2023-05-24T00:12:44.873Z,35.58
2023-05-24T00:13:44.832Z,35.55
2023-05-24T00:14:44.846Z,35.57
2023-05-24T00:15:44.806Z,35.56
2023-05-24T00:16:44.820Z,35.59
2023-05-24T00:17:44.784Z,35.61
2023-05-24T00:18:44.775Z,35.58
2023-05-24T00:19:44.757Z,35.58
2023-05-24T00:20:45.223Z,35.58
2023-05-24T00:21:44.727Z,35.58
2023-05-24T00:22:44.718Z,35.56
2023-05-24T00:23:44.689Z,35.61
2023-05-24T00:24:44.690Z,35.57
2023-05-24T00:25:44.697Z,35.59
2023-05-24T00:26:44.701Z,35.57
2023-05-24T00:27:44.735Z,35.57
2023-05-24T00:28:44.750Z,35.57
2023-05-24T00:29:44.765Z,35.58
2023-05-24T00:30:45.001Z,35.57
2023-05-24T00:31:44.837Z,35.59
2023-05-24T00:32:44.871Z,35.55
2023-05-24T00:33:44.868Z,35.56
2023-05-24T00:34:44.885Z,35.57
2023-05-24T00:35:44.904Z,35.58
2023-05-24T00:36:44.951Z,35.60
2023-05-24T00:37:44.949Z,35.56
2023-05-24T00:38:44.964Z,35.56
2023-05-24T00:39:44.993Z,35.59
2023-05-24T00:40:44.972Z,35.58
2023-05-24T00:41:44.948Z,35.58
2023-05-24T00:42:44.953Z,35.59
2023-05-24T00:43:44.926Z,35.64
2023-05-24T00:44:44.890Z,35.61
2023-05-24T00:45:44.905Z,35.58
2023-05-24T00:46:44.853Z,35.61
2023-05-24T00:47:44.868Z,35.60
2023-05-24T00:48:44.840Z,35.60
2023-05-24T00:49:44.816Z,35.61
2023-05-24T00:50:44.794Z,35.61
2023-05-24T00:51:44.775Z,35.59
2023-05-24T00:52:44.764Z,35.59
2023-05-24T00:53:44.742Z,35.62
2023-05-24T00:54:44.731Z,35.61
2023-05-24T00:55:44.718Z,35.62
2023-05-24T00:56:44.705Z,35.60
2023-05-24T00:57:44.667Z,35.63
2023-05-24T00:58:44.660Z,35.63
2023-05-24T00:59:44.647Z,35.65
2023-05-24T01:00:44.652Z,35.63
2023-05-24T01:01:44.646Z,35.62
2023-05-24T01:02:44.699Z,35.64
2023-05-24T01:03:44.698Z,35.63
2023-05-24T01:04:44.603Z,35.65
2023-05-24T01:05:44.589Z,35.60
2023-05-24T01:06:44.554Z,35.58
2023-05-24T01:07:44.532Z,35.60
2023-05-24T01:08:44.529Z,35.62
2023-05-24T01:09:44.504Z,35.60
2023-05-24T01:10:44.698Z,35.59
2023-05-24T01:11:44.562Z,35.59
2023-05-24T01:12:44.608Z,35.59
2023-05-24T01:13:44.606Z,35.58
2023-05-24T01:14:44.638Z,35.56
2023-05-24T01:15:44.733Z,35.59
2023-05-24T01:16:44.741Z,35.60
2023-05-24T01:17:44.790Z,35.58
2023-05-24T01:18:44.738Z,35.58
2023-05-24T01:19:44.796Z,35.60
2023-05-24T01:20:45.330Z,35.60
2023-05-24T01:21:44.830Z,35.63
2023-05-24T01:22:44.874Z,35.62
2023-05-24T01:23:44.871Z,35.62
2023-05-24T01:24:44.894Z,35.63
2023-05-24T01:25:44.920Z,35.63
2023-05-24T01:26:44.939Z,35.64
2023-05-24T01:27:44.968Z,35.62
2023-05-24T01:28:44.973Z,35.62
2023-05-24T01:29:45.004Z,35.64
2023-05-24T01:30:45.024Z,35.62
2023-05-24T01:31:45.151Z,35.66
2023-05-24T01:32:45.143Z,35.65
2023-05-24T01:33:45.080Z,35.65
2023-05-24T01:34:45.144Z,35.65
2023-05-24T01:35:45.147Z,35.62
2023-05-24T01:36:45.161Z,35.66
2023-05-24T01:37:45.197Z,35.63
2023-05-24T01:38:45.224Z,35.62
2023-05-24T01:39:45.237Z,35.65
2023-05-24T01:40:45.460Z,35.63
2023-05-24T01:41:45.295Z,35.65
2023-05-24T01:42:45.319Z,35.67
2023-05-24T01:43:45.377Z,35.66
2023-05-24T01:44:45.382Z,35.67
2023-05-24T01:45:45.422Z,35.66
2023-05-24T01:46:45.480Z,35.69
2023-05-24T01:47:45.534Z,35.69
2023-05-24T01:48:45.473Z,35.64
2023-05-24T01:49:45.503Z,35.69
2023-05-24T01:50:45.533Z,35.68
2023-05-24T01:51:45.578Z,35.67
2023-05-24T01:52:45.561Z,35.66
2023-05-24T01:53:45.582Z,35.66
2023-05-24T01:54:45.612Z,35.64
2023-05-24T01:55:45.647Z,35.65
2023-05-24T01:56:45.645Z,35.66
2023-05-24T01:57:45.626Z,35.67
2023-05-24T01:58:45.630Z,35.65
2023-05-24T01:59:45.601Z,35.64
2023-05-24T02:00:45.856Z,35.66
2023-05-24T02:01:45.552Z,35.63
2023-05-24T02:02:45.757Z,35.62
2023-05-24T02:03:45.528Z,35.66
2023-05-24T02:04:45.520Z,35.63
2023-05-24T02:05:45.485Z,35.67
2023-05-24T02:06:45.484Z,35.67
2023-05-24T02:07:45.463Z,35.66
2023-05-24T02:08:45.440Z,35.65
2023-05-24T02:09:45.438Z,35.66
2023-05-24T02:10:45.416Z,35.63
2023-05-24T02:11:45.407Z,35.64
2023-05-24T02:12:45.386Z,35.61
2023-05-24T02:13:45.394Z,35.65
2023-05-24T02:14:45.371Z,35.63
2023-05-24T02:15:45.350Z,35.65
2023-05-24T02:16:45.352Z,35.64
2023-05-24T02:17:45.394Z,35.70
2023-05-24T02:18:45.355Z,35.65
2023-05-24T02:19:45.356Z,35.69
2023-05-24T02:20:45.700Z,35.68
2023-05-24T02:21:45.414Z,35.67
2023-05-24T02:22:45.418Z,35.66
2023-05-24T02:23:45.438Z,35.64
2023-05-24T02:24:45.485Z,35.64
2023-05-24T02:25:45.469Z,35.65
2023-05-24T02:26:45.439Z,35.65
2023-05-24T02:27:45.411Z,35.65
2023-05-24T02:28:45.410Z,35.62
2023-05-24T02:29:45.391Z,35.62
2023-05-24T02:30:45.572Z,35.64
2023-05-24T02:31:45.358Z,35.64
2023-05-24T02:32:45.367Z,35.65
2023-05-24T02:33:45.313Z,35.64
2023-05-24T02:34:45.329Z,35.66
2023-05-24T02:35:45.331Z,35.68
2023-05-24T02:36:45.290Z,35.65
2023-05-24T02:37:45.255Z,35.65
2023-05-24T02:38:45.224Z,35.68
2023-05-24T02:39:45.273Z,35.67
2023-05-24T02:40:45.255Z,35.68
2023-05-24T02:41:45.278Z,35.68
2023-05-24T02:42:45.318Z,35.69
2023-05-24T02:43:45.320Z,35.68
2023-05-24T02:44:45.362Z,35.68
2023-05-24T02:45:45.383Z,35.68
2023-05-24T02:46:45.516Z,35.69
2023-05-24T02:47:45.524Z,35.64
2023-05-24T02:48:45.457Z,35.60
2023-05-24T02:49:45.474Z,35.60
2023-05-24T02:50:45.527Z,35.65
2023-05-24T02:51:45.533Z,35.65
2023-05-24T02:52:45.550Z,35.65
2023-05-24T02:53:45.567Z,35.71
2023-05-24T02:54:45.614Z,35.80
2023-05-24T02:55:45.655Z,35.84
2023-05-24T02:56:45.686Z,35.82
2023-05-24T02:57:45.691Z,35.84
2023-05-24T02:58:45.732Z,35.89
2023-05-24T02:59:45.730Z,35.94
2023-05-24T03:00:45.734Z,35.99
2023-05-24T03:01:45.801Z,36.05
2023-05-24T03:02:45.749Z,36.06
2023-05-24T03:03:45.760Z,36.12
2023-05-24T03:04:45.646Z,36.18
2023-05-24T03:05:45.633Z,36.18
2023-05-24T03:06:45.604Z,36.25
2023-05-24T03:07:45.625Z,36.27
2023-05-24T03:08:45.593Z,36.34
2023-05-24T03:09:45.585Z,36.37
2023-05-24T03:10:45.559Z,36.44
2023-05-24T03:11:45.560Z,36.48
2023-05-24T03:12:45.600Z,36.52
2023-05-24T03:13:45.679Z,36.54
2023-05-24T03:14:45.698Z,36.57
2023-05-24T03:15:45.762Z,36.56
2023-05-24T03:16:45.861Z,36.58
2023-05-24T03:17:45.831Z,36.63
2023-05-24T03:18:45.751Z,36.67
2023-05-24T03:19:45.752Z,36.69
2023-05-24T03:20:45.856Z,36.74
2023-05-24T03:21:45.735Z,36.76
2023-05-24T03:22:45.774Z,36.78
2023-05-24T03:23:45.706Z,36.82
2023-05-24T03:24:45.698Z,36.86
2023-05-24T03:25:45.702Z,36.88
2023-05-24T03:26:45.767Z,36.89
2023-05-24T03:27:45.810Z,36.92
2023-05-24T03:28:45.859Z,36.92
2023-05-24T03:29:45.891Z,36.95
2023-05-24T03:30:45.894Z,36.92
2023-05-24T03:31:45.920Z,37.01
2023-05-24T03:32:45.907Z,37.03
2023-05-24T03:33:45.878Z,37.06
2023-05-24T03:34:45.862Z,37.10
2023-05-24T03:35:45.853Z,37.10
2023-05-24T03:36:45.856Z,37.12
2023-05-24T03:37:45.848Z,37.12
2023-05-24T03:38:45.831Z,37.13
2023-05-24T03:39:45.883Z,37.15
2023-05-24T03:40:45.950Z,37.18
2023-05-24T03:41:46.004Z,37.21
2023-05-24T03:42:45.999Z,37.21
2023-05-24T03:43:45.976Z,37.26
2023-05-24T03:44:45.979Z,37.24
2023-05-24T03:45:45.995Z,37.27
2023-05-24T03:46:45.958Z,37.28
2023-05-24T03:47:46.015Z,37.26
2023-05-24T03:48:45.939Z,37.32
2023-05-24T03:49:45.934Z,37.33
2023-05-24T03:50:45.942Z,37.30
2023-05-24T03:51:45.928Z,37.30
2023-05-24T03:52:45.926Z,37.34
2023-05-24T03:53:45.907Z,37.28
2023-05-24T03:54:45.909Z,37.26
2023-05-24T03:55:45.979Z,37.26
2023-05-24T03:56:45.991Z,37.27
2023-05-24T03:57:46.026Z,37.28
2023-05-24T03:58:46.072Z,37.30
2023-05-24T03:59:46.140Z,37.31
2023-05-24T04:00:46.205Z,37.25
2023-05-24T04:01:46.255Z,37.24
2023-05-24T04:02:46.374Z,37.24
2023-05-24T04:03:46.415Z,37.23
2023-05-24T04:04:46.407Z,37.22
2023-05-24T04:05:46.429Z,37.25
2023-05-24T04:06:46.389Z,37.23
2023-05-24T04:07:46.531Z,37.25
2023-05-24T04:08:46.375Z,37.30
2023-05-24T04:09:46.355Z,37.31
2023-05-24T04:10:46.362Z,37.32
2023-05-24T04:11:46.351Z,37.33
2023-05-24T04:12:46.333Z,37.34
2023-05-24T04:13:46.331Z,37.33
2023-05-24T04:14:46.372Z,37.33
2023-05-24T04:15:46.438Z,37.30
2023-05-24T04:16:46.505Z,37.31
2023-05-24T04:17:46.599Z,37.32
2023-05-24T04:18:46.634Z,37.33
2023-05-24T04:19:46.510Z,37.33
2023-05-24T04:20:46.574Z,37.27
2023-05-24T04:21:46.602Z,37.27
2023-05-24T04:22:46.560Z,37.25
2023-05-24T04:23:46.539Z,37.26
2023-05-24T04:24:46.571Z,37.24
2023-05-24T04:25:46.516Z,37.25
2023-05-24T04:26:46.523Z,37.27
2023-05-24T04:27:46.523Z,37.25
2023-05-24T04:28:46.504Z,37.28
2023-05-24T04:29:46.500Z,37.24
2023-05-24T04:30:46.503Z,37.28
2023-05-24T04:31:46.552Z,37.28
2023-05-24T04:32:46.640Z,37.29
2023-05-24T04:33:46.491Z,37.28
2023-05-24T04:34:46.508Z,37.26
2023-05-24T04:35:46.479Z,37.27
2023-05-24T04:36:46.478Z,37.30
2023-05-24T04:37:46.463Z,37.30
2023-05-24T04:38:46.458Z,37.33
2023-05-24T04:39:46.448Z,37.33
2023-05-24T04:40:46.444Z,37.34
2023-05-24T04:41:46.455Z,37.33
2023-05-24T04:42:46.428Z,37.33
2023-05-24T04:43:46.420Z,37.35
2023-05-24T04:44:46.433Z,37.38
2023-05-24T04:45:46.440Z,37.37
2023-05-24T04:46:46.455Z,37.42
2023-05-24T04:47:46.427Z,37.44
2023-05-24T04:48:46.427Z,37.41
2023-05-24T04:49:46.429Z,37.45
2023-05-24T04:50:46.433Z,37.48
2023-05-24T04:51:46.460Z,37.49
2023-05-24T04:52:46.448Z,37.50
2023-05-24T04:53:46.430Z,37.50
2023-05-24T04:54:46.424Z,37.49
2023-05-24T04:55:46.443Z,37.50
2023-05-24T04:56:46.412Z,37.48
2023-05-24T04:57:46.411Z,37.50
2023-05-24T04:58:46.398Z,37.49
2023-05-24T04:59:46.372Z,37.51
2023-05-24T05:00:46.365Z,37.49
2023-05-24T05:01:46.434Z,37.47
2023-05-24T05:02:46.493Z,37.47
2023-05-24T05:03:46.512Z,37.47
2023-05-24T05:04:46.327Z,37.48
2023-05-24T05:05:46.319Z,37.45
2023-05-24T05:06:46.308Z,37.47
2023-05-24T05:07:46.307Z,37.44
2023-05-24T05:08:46.290Z,37.44
2023-05-24T05:09:46.311Z,37.42
2023-05-24T05:10:46.386Z,37.41
2023-05-24T05:11:46.438Z,37.41
2023-05-24T05:12:46.469Z,37.42
2023-05-24T05:13:46.512Z,37.39
2023-05-24T05:14:46.485Z,37.37
2023-05-24T05:15:46.475Z,37.31
2023-05-24T05:16:46.752Z,37.35
2023-05-24T05:17:46.462Z,37.33
2023-05-24T05:18:46.415Z,37.26
2023-05-24T05:19:46.456Z,37.20
2023-05-24T05:20:46.607Z,37.16
2023-05-24T05:21:46.373Z,37.16
2023-05-24T05:22:46.359Z,37.11
2023-05-24T05:23:46.357Z,37.14
2023-05-24T05:24:46.319Z,37.16
2023-05-24T05:25:46.321Z,37.16
2023-05-24T05:26:46.377Z,37.12
2023-05-24T05:27:46.438Z,37.15
2023-05-24T05:28:46.449Z,37.22
2023-05-24T05:29:46.429Z,37.18
2023-05-24T05:30:46.408Z,37.42
2023-05-24T05:31:46.399Z,37.83
2023-05-24T05:32:46.577Z,38.10
2023-05-24T05:33:46.370Z,38.55
2023-05-24T05:34:46.342Z,38.27
2023-05-24T05:35:46.361Z,38.70
2023-05-24T05:36:46.324Z,38.97
2023-05-24T05:37:46.329Z,39.16
2023-05-24T05:38:46.290Z,39.30
2023-05-24T05:39:46.308Z,39.50
2023-05-24T05:40:46.383Z,39.46
2023-05-24T05:41:46.743Z,39.42
2023-05-24T05:42:46.558Z,39.58
2023-05-24T05:43:46.467Z,39.82
2023-05-24T05:44:46.557Z,39.96
2023-05-24T05:45:46.666Z,39.98
2023-05-24T05:46:46.666Z,39.96
2023-05-24T05:47:46.738Z,40.17
2023-05-24T05:48:46.686Z,40.05
2023-05-24T05:49:46.502Z,40.07
2023-05-24T05:50:46.512Z,40.01
2023-05-24T05:51:46.469Z,40.23
2023-05-24T05:52:46.462Z,40.35
2023-05-24T05:53:46.513Z,40.29
2023-05-24T05:54:46.447Z,40.28
2023-05-24T05:55:46.441Z,40.23
2023-05-24T05:56:46.440Z,40.25
2023-05-24T05:57:46.435Z,40.22
2023-05-24T05:58:46.444Z,40.31
2023-05-24T05:59:46.442Z,40.50
2023-05-24T06:00:46.483Z,40.59
2023-05-24T06:01:46.522Z,40.61
2023-05-24T06:02:46.660Z,40.71
2023-05-24T06:03:46.777Z,40.79
2023-05-24T06:04:46.591Z,40.61
2023-05-24T06:05:46.507Z,40.38
2023-05-24T06:06:46.504Z,40.47
2023-05-24T06:07:46.456Z,40.57
2023-05-24T06:08:46.432Z,40.40
2023-05-24T06:09:46.405Z,40.60
2023-05-24T06:10:46.389Z,40.68
2023-05-24T06:11:46.377Z,40.68
2023-05-24T06:12:46.322Z,40.77
2023-05-24T06:13:46.324Z,40.75
2023-05-24T06:14:46.308Z,40.74
2023-05-24T06:15:46.283Z,40.86
2023-05-24T06:16:46.240Z,40.87
2023-05-24T06:17:46.342Z,40.87
2023-05-24T06:18:57.250Z,40.97
2023-05-24T06:19:47.168Z,41.01
2023-05-24T06:20:46.371Z,41.09
2023-05-24T06:21:46.140Z,41.06
2023-05-24T06:22:46.152Z,40.99
2023-05-24T06:23:46.093Z,41.10
2023-05-24T06:24:46.067Z,41.07
2023-05-24T06:25:46.008Z,41.14
2023-05-24T06:26:46.007Z,41.05
2023-05-24T06:27:45.972Z,41.03
2023-05-24T06:28:46.044Z,41.01
2023-05-24T06:29:45.983Z,40.73
2023-05-24T06:30:46.159Z,40.47
2023-05-24T06:31:45.907Z,39.32
2023-05-24T06:32:45.917Z,37.13
2023-05-24T06:33:52.390Z,37.67
2023-05-24T06:34:46.862Z,38.22
2023-05-24T06:35:45.818Z,38.55
2023-05-24T06:36:45.820Z,38.73
2023-05-24T06:37:45.791Z,39.04
2023-05-24T06:38:45.768Z,39.02
2023-05-24T06:39:45.809Z,39.16
2023-05-24T06:40:45.764Z,39.32
2023-05-24T06:41:45.804Z,39.55
2023-05-24T06:42:45.778Z,39.83
2023-05-24T06:43:45.770Z,39.85
2023-05-24T06:44:45.791Z,40.43
2023-05-24T06:45:45.828Z,40.62
2023-05-24T06:46:45.959Z,40.64
2023-05-24T06:47:45.972Z,40.66
2023-05-24T06:48:46.013Z,40.81
2023-05-24T06:49:45.963Z,40.78
2023-05-24T06:50:46.120Z,40.78
2023-05-24T06:51:46.022Z,40.67
2023-05-24T06:52:45.976Z,40.76
2023-05-24T06:53:45.984Z,40.65
2023-05-24T06:54:45.973Z,40.80
2023-05-24T06:55:46.123Z,41.13
2023-05-24T06:56:45.973Z,41.04
2023-05-24T06:57:46.008Z,41.21
2023-05-24T06:58:46.072Z,41.44
2023-05-24T06:59:46.124Z,41.61
2023-05-24T07:00:46.714Z,41.47
2023-05-24T07:01:46.366Z,41.73
2023-05-24T07:02:46.227Z,41.58
2023-05-24T07:03:46.207Z,41.59
2023-05-24T07:04:46.347Z,41.42
2023-05-24T07:05:46.165Z,41.51
2023-05-24T07:06:46.170Z,41.35
2023-05-24T07:07:46.146Z,41.35
2023-05-24T07:08:46.139Z,41.13
2023-05-24T07:09:46.154Z,41.41
2023-05-24T07:10:46.090Z,40.96
2023-05-24T07:11:46.135Z,41.27
2023-05-24T07:12:46.117Z,41.25
2023-05-24T07:13:46.165Z,41.22
2023-05-24T07:14:46.177Z,41.32
2023-05-24T07:15:46.223Z,41.40
2023-05-24T07:16:46.274Z,41.24
2023-05-24T07:17:46.252Z,41.22
2023-05-24T07:18:46.250Z,40.77
2023-05-24T07:19:46.173Z,40.62
2023-05-24T07:20:46.439Z,40.70
2023-05-24T07:21:46.162Z,40.66
2023-05-24T07:22:46.125Z,40.61
2023-05-24T07:23:46.103Z,40.49
2023-05-24T07:24:46.103Z,40.54
2023-05-24T07:25:46.085Z,40.77
2023-05-24T07:26:46.055Z,40.72
2023-05-24T07:27:46.073Z,40.52
2023-05-24T07:28:46.052Z,40.33
2023-05-24T07:29:48.104Z,40.52
2023-05-24T07:30:46.006Z,40.32
2023-05-24T07:31:46.048Z,40.46
2023-05-24T07:32:46.085Z,40.52
2023-05-24T07:33:45.955Z,40.54
2023-05-24T07:34:45.961Z,40.44
2023-05-24T07:35:46.005Z,40.62
2023-05-24T07:36:45.901Z,40.65
2023-05-24T07:37:45.909Z,40.77
2023-05-24T07:38:45.923Z,40.28
2023-05-24T07:39:45.896Z,40.41
2023-05-24T07:40:45.924Z,40.32
2023-05-24T07:41:45.849Z,40.22
2023-05-24T07:42:45.840Z,39.84
2023-05-24T07:43:45.813Z,39.87
2023-05-24T07:44:45.798Z,39.85
2023-05-24T07:45:45.817Z,39.77
2023-05-24T07:46:45.843Z,39.56
2023-05-24T07:47:45.801Z,38.52
2023-05-24T07:48:45.875Z,38.25
2023-05-24T07:49:45.723Z,37.95
2023-05-24T07:50:45.687Z,37.76
2023-05-24T07:51:45.693Z,37.91
2023-05-24T07:52:45.703Z,37.99
2023-05-24T07:53:45.675Z,38.06
2023-05-24T07:54:45.712Z,38.13
2023-05-24T07:55:45.806Z,38.12
2023-05-24T07:56:45.676Z,38.27
2023-05-24T07:57:45.675Z,38.31
2023-05-24T07:58:45.740Z,38.34
2023-05-24T07:59:45.843Z,38.53
2023-05-24T08:00:45.896Z,38.52
2023-05-24T08:01:46.036Z,38.81
2023-05-24T08:02:45.998Z,39.03
2023-05-24T08:03:46.122Z,39.12
2023-05-24T08:04:45.985Z,39.05
2023-05-24T08:05:46.058Z,39.23
2023-05-24T08:06:46.093Z,39.10
2023-05-24T08:07:46.010Z,39.13
2023-05-24T08:08:46.004Z,39.29
2023-05-24T08:09:46.010Z,39.33
2023-05-24T08:10:45.999Z,39.30
2023-05-24T08:11:46.021Z,39.32
2023-05-24T08:12:46.020Z,39.29
2023-05-24T08:13:45.978Z,39.36
2023-05-24T08:14:45.990Z,39.42
2023-05-24T08:15:46.068Z,39.58
2023-05-24T08:16:46.191Z,39.69
2023-05-24T08:17:46.047Z,40.01
2023-05-24T08:18:46.022Z,40.48
2023-05-24T08:19:46.202Z,40.69
2023-05-24T08:20:46.258Z,40.79
2023-05-24T08:21:46.134Z,40.69
2023-05-24T08:22:46.140Z,40.73
2023-05-24T08:23:46.158Z,40.70
2023-05-24T08:24:46.172Z,41.10
2023-05-24T08:25:46.261Z,41.32
2023-05-24T08:26:46.163Z,41.46
2023-05-24T08:27:46.247Z,41.64
2023-05-24T08:28:46.157Z,41.92
2023-05-24T08:29:46.141Z,42.15
2023-05-24T08:30:46.205Z,42.12
2023-05-24T08:31:46.295Z,42.56
2023-05-24T08:32:46.334Z,42.74
2023-05-24T08:33:46.311Z,42.81
2023-05-24T08:34:46.315Z,42.76
2023-05-24T08:35:46.326Z,43.35
2023-05-24T08:36:46.719Z,42.73
2023-05-24T08:37:46.496Z,42.57
2023-05-24T08:38:46.507Z,42.43
2023-05-24T08:39:46.519Z,42.28
2023-05-24T08:40:46.514Z,42.20
2023-05-24T08:41:51.745Z,42.16
2023-05-24T08:42:47.498Z,42.11
2023-05-24T08:43:46.510Z,41.99
2023-05-24T08:44:46.487Z,41.94
2023-05-24T08:45:46.840Z,41.75
2023-05-24T08:46:46.531Z,42.01
2023-05-24T08:47:46.519Z,41.89
2023-05-24T08:48:46.508Z,41.87
2023-05-24T08:49:46.452Z,41.93
2023-05-24T08:50:46.428Z,41.98
2023-05-24T08:51:46.463Z,41.74
2023-05-24T08:52:46.457Z,41.87
2023-05-24T08:53:46.451Z,41.84
2023-05-24T08:54:46.412Z,41.61
2023-05-24T08:55:46.527Z,41.80
2023-05-24T08:56:46.433Z,41.70
2023-05-24T08:57:46.381Z,41.67
2023-05-24T08:58:46.379Z,41.58
2023-05-24T08:59:46.484Z,41.73
2023-05-24T09:00:46.488Z,41.64
2023-05-24T09:01:46.662Z,41.69
2023-05-24T09:02:46.690Z,41.71
2023-05-24T09:03:46.806Z,41.70
2023-05-24T09:04:46.722Z,41.61
2023-05-24T09:05:46.760Z,41.68
2023-05-24T09:06:46.811Z,41.52
2023-05-24T09:07:46.938Z,41.61
2023-05-24T09:08:47.125Z,41.72
2023-05-24T09:09:47.009Z,41.61
2023-05-24T09:10:55.094Z,41.62
2023-05-24T09:11:47.954Z,41.60
2023-05-24T09:12:46.968Z,41.77
2023-05-24T09:13:46.936Z,41.84
2023-05-24T09:14:46.903Z,41.73
2023-05-24T09:15:47.010Z,41.81
2023-05-24T09:16:46.966Z,42.00
2023-05-24T09:17:46.938Z,41.94
2023-05-24T09:18:46.873Z,41.90
2023-05-24T09:19:46.935Z,41.85
2023-05-24T09:20:47.160Z,41.81
2023-05-24T09:21:46.863Z,41.75
2023-05-24T09:22:46.873Z,41.77
2023-05-24T09:23:46.843Z,41.66
2023-05-24T09:24:46.903Z,41.85
2023-05-24T09:25:46.861Z,41.62
2023-05-24T09:26:46.858Z,41.54
2023-05-24T09:27:48.219Z,41.61
2023-05-24T09:28:46.833Z,41.88
2023-05-24T09:29:46.912Z,41.61
2023-05-24T09:30:46.956Z,41.90
2023-05-24T09:31:47.095Z,41.94
2023-05-24T09:32:47.033Z,42.04
2023-05-24T09:33:47.002Z,41.89
2023-05-24T09:34:47.007Z,42.05
2023-05-24T09:35:47.012Z,42.03
2023-05-24T09:36:47.137Z,41.98
2023-05-24T09:37:47.164Z,41.82
2023-05-24T09:38:47.198Z,41.81
2023-05-24T09:39:47.153Z,41.72
2023-05-24T09:40:47.091Z,41.69
2023-05-24T09:41:47.355Z,42.08
2023-05-24T09:42:47.483Z,41.79
2023-05-24T09:43:47.277Z,41.82
2023-05-24T09:44:47.324Z,41.67
2023-05-24T09:45:47.595Z,41.99
2023-05-24T09:46:47.503Z,41.66
2023-05-24T09:47:47.535Z,41.39
2023-05-24T09:48:47.569Z,41.25
2023-05-24T09:49:49.206Z,41.07
2023-05-24T09:51:18.348Z,41.25
2023-05-24T09:52:18.314Z,41.35
2023-05-24T09:53:18.265Z,41.21
2023-05-24T09:54:18.194Z,40.94
2023-05-24T09:55:18.263Z,40.94
2023-05-24T09:56:18.210Z,40.71
2023-05-24T09:57:18.142Z,40.72
2023-05-24T09:58:18.114Z,40.47
2023-05-24T09:59:18.091Z,40.30
2023-05-24T10:00:18.132Z,40.22
2023-05-24T10:01:18.097Z,40.10
2023-05-24T10:02:18.006Z,40.08
2023-05-24T10:03:18.078Z,40.19
2023-05-24T10:04:18.015Z,40.18
2023-05-24T10:05:17.922Z,40.27
2023-05-24T10:06:17.893Z,40.28
2023-05-24T10:07:17.937Z,40.17
2023-05-24T10:08:17.808Z,40.09
2023-05-24T10:09:17.779Z,40.07
2023-05-24T10:10:17.762Z,39.95
2023-05-24T10:11:17.755Z,40.01
2023-05-24T10:12:17.697Z,40.14
2023-05-24T10:13:17.730Z,40.06
2023-05-24T10:14:17.644Z,40.02
2023-05-24T10:15:17.616Z,40.33
2023-05-24T10:16:17.657Z,40.14
2023-05-24T10:17:17.564Z,40.02
2023-05-24T10:18:17.595Z,39.98
2023-05-24T10:19:17.500Z,39.95
2023-05-24T10:20:17.533Z,39.91
2023-05-24T10:21:17.508Z,39.89
2023-05-24T10:22:17.432Z,39.82
2023-05-24T10:23:17.461Z,39.82
2023-05-24T10:24:17.398Z,39.83
2023-05-24T10:25:17.369Z,39.99
2023-05-24T10:26:17.392Z,40.10
2023-05-24T10:27:17.320Z,39.97
2023-05-24T10:28:17.343Z,39.90
2023-05-24T10:29:17.292Z,39.86
2023-05-24T10:30:17.270Z,39.98
2023-05-24T10:31:17.306Z,39.99
2023-05-24T10:32:17.213Z,39.84
2023-05-24T10:33:17.245Z,39.90
2023-05-24T10:34:17.153Z,39.94
2023-05-24T10:35:17.125Z,39.93
2023-05-24T10:36:17.110Z,39.98
2023-05-24T10:37:17.069Z,40.01
2023-05-24T10:38:17.042Z,40.01
2023-05-24T10:39:17.924Z,39.89
2023-05-24T10:40:17.087Z,39.78
2023-05-24T10:41:17.134Z,39.79
2023-05-24T10:42:17.165Z,39.71
2023-05-24T10:43:17.246Z,39.63
2023-05-24T10:44:17.221Z,39.63
2023-05-24T10:45:17.265Z,39.59
2023-05-24T10:46:17.414Z,39.55
2023-05-24T10:47:17.333Z,39.54
2023-05-24T10:48:17.414Z,39.55
2023-05-24T10:49:17.446Z,39.51
2023-05-24T10:50:17.501Z,39.47
2023-05-24T10:51:17.538Z,39.50
2023-05-24T10:52:17.574Z,39.39
2023-05-24T10:53:17.703Z,39.43
2023-05-24T10:54:17.640Z,39.45
2023-05-24T10:55:17.537Z,39.40
2023-05-24T10:56:17.530Z,39.32
2023-05-24T10:57:17.536Z,39.30
2023-05-24T10:58:17.632Z,39.28
2023-05-24T10:59:17.482Z,39.31
2023-05-24T11:00:26.790Z,39.32
2023-05-24T11:01:18.454Z,39.36
2023-05-24T11:02:17.458Z,39.39
2023-05-24T11:03:17.414Z,39.39
2023-05-24T11:04:17.375Z,39.43
2023-05-24T11:05:17.411Z,39.40
2023-05-24T11:06:17.299Z,39.36
2023-05-24T11:07:17.270Z,39.38
2023-05-24T11:08:17.263Z,39.37
2023-05-24T11:09:17.222Z,39.39
2023-05-24T11:10:17.196Z,39.39
2023-05-24T11:11:25.728Z,39.41
2023-05-24T11:12:18.186Z,39.39
2023-05-24T11:13:17.106Z,39.38
2023-05-24T11:14:17.075Z,39.36
2023-05-24T11:15:17.085Z,39.39
2023-05-24T11:16:17.114Z,39.39
2023-05-24T11:17:17.012Z,39.34
2023-05-24T11:18:17.100Z,39.35
2023-05-24T11:19:16.941Z,39.35
2023-05-24T11:20:16.952Z,39.38
2023-05-24T11:21:16.911Z,39.40
2023-05-24T11:22:16.961Z,39.40
2023-05-24T11:23:16.912Z,39.37
2023-05-24T11:24:16.861Z,39.42
2023-05-24T11:25:16.822Z,39.36
2023-05-24T11:26:16.814Z,39.39
2023-05-24T11:27:16.777Z,39.39
2023-05-24T11:28:16.815Z,39.36
2023-05-24T11:29:16.723Z,39.40
2023-05-24T11:30:16.691Z,39.42
2023-05-24T11:31:16.731Z,39.38
2023-05-24T11:32:16.765Z,39.40
2023-05-24T11:33:16.720Z,39.33
2023-05-24T11:34:16.618Z,39.35
2023-05-24T11:35:16.586Z,39.34
2023-05-24T11:36:16.572Z,39.35
2023-05-24T11:37:17.671Z,39.36
2023-05-24T11:38:16.516Z,39.34
2023-05-24T11:39:16.632Z,39.35
2023-05-24T11:40:16.451Z,39.36
2023-05-24T11:41:16.439Z,39.33
2023-05-24T11:42:16.434Z,39.36
2023-05-24T11:43:16.844Z,39.35
2023-05-24T11:44:16.376Z,39.36
2023-05-24T11:45:16.345Z,39.34
2023-05-24T11:46:16.389Z,39.34
2023-05-24T11:47:16.325Z,39.33
2023-05-24T11:48:16.383Z,40.09
2023-05-24T11:49:16.292Z,39.70
2023-05-24T11:50:16.242Z,39.44
2023-05-24T11:51:16.213Z,39.43
2023-05-24T11:52:16.260Z,39.40
2023-05-24T11:53:16.289Z,39.41
2023-05-24T11:54:16.334Z,39.39
2023-05-24T11:55:16.839Z,39.37
2023-05-24T11:56:16.414Z,39.42
2023-05-24T11:57:16.418Z,39.41
2023-05-24T11:58:16.362Z,39.36
2023-05-24T11:59:16.420Z,39.35
2023-05-24T12:00:16.336Z,39.32
2023-05-24T12:01:16.330Z,39.60
2023-05-24T12:02:16.298Z,39.50
2023-05-24T12:03:16.350Z,39.48
2023-05-24T12:04:16.352Z,39.42
2023-05-24T12:05:16.199Z,39.44
2023-05-24T12:06:16.201Z,39.38
2023-05-24T12:07:16.191Z,39.36
2023-05-24T12:08:16.222Z,39.29
2023-05-24T12:09:16.265Z,39.26
2023-05-24T12:10:16.284Z,39.22
2023-05-24T12:11:16.317Z,39.22
2023-05-24T12:12:16.292Z,39.21
2023-05-24T12:13:16.299Z,39.16
2023-05-24T12:14:16.328Z,39.14
2023-05-24T12:15:16.412Z,39.14
2023-05-24T12:16:16.446Z,39.12
2023-05-24T12:17:16.471Z,39.05
2023-05-24T12:18:16.591Z,39.06
2023-05-24T12:19:31.572Z,39.07
2023-05-24T12:20:17.505Z,39.06
2023-05-24T12:21:16.493Z,39.04
2023-05-24T12:22:16.454Z,39.02
2023-05-24T12:23:16.420Z,39.03
2023-05-24T12:24:16.429Z,39.01
2023-05-24T12:25:16.398Z,39.01
2023-05-24T12:26:16.337Z,38.99
2023-05-24T12:27:16.353Z,38.97
2023-05-24T12:28:16.281Z,38.97
2023-05-24T12:29:16.252Z,38.97
2023-05-24T12:30:16.216Z,38.94
2023-05-24T12:31:16.207Z,38.89
2023-05-24T12:32:16.170Z,38.92
2023-05-24T12:33:16.116Z,38.94
2023-05-24T12:34:16.087Z,38.95
2023-05-24T12:35:16.080Z,38.98
2023-05-24T12:36:16.064Z,39.26
2023-05-24T12:37:16.022Z,39.58
2023-05-24T12:38:15.956Z,39.70
2023-05-24T12:39:15.917Z,39.72
2023-05-24T12:40:15.920Z,39.54
2023-05-24T12:41:15.852Z,39.99
2023-05-24T12:42:15.823Z,40.03
2023-05-24T12:43:15.784Z,40.00
2023-05-24T12:44:15.753Z,39.76
2023-05-24T12:45:15.733Z,40.03
2023-05-24T12:46:15.689Z,39.86
2023-05-24T12:47:15.803Z,39.50
2023-05-24T12:48:15.687Z,39.75
2023-05-24T12:49:15.663Z,39.39
2023-05-24T12:50:15.673Z,39.28
2023-05-24T12:51:15.623Z,39.46
2023-05-24T12:52:15.621Z,39.19
2023-05-24T12:53:15.632Z,39.16